Monte Brasil — CSEM — position and weather

sailwx.info

Track history (hours):
 
Tides and Currents Weather Stations Pressure Air Temp Water Temp Dewpoint Dewpoint Depression Visibility Wind Speed Wind Dir Waves Ship Positions

Monte Brasil

Last reported at 2017-Dec-16 02:44 UTC. Time now 2017-Dec-17 02:33 UTC.
Position N 37°57' W 023°53'.

Length 127 m; draft 6.6 m.

Type: Cargo ship. MMSI: 255806010.

Date/timePositionNaut miles runAvg speedWind from/ knotsBaromVisibWave heightAir tempDewpointWater temp
2017-Dec-16 02:44N 37°57' W 023°53'416.0
2017-Dec-16 02:30N 37°56' W 023°58'815.9
2017-Dec-16 02:00N 37°54' W 024°07'815.9
2017-Dec-16 01:30N 37°52' W 024°17'815.6
2017-Dec-16 01:00N 37°50' W 024°26'815.8
2017-Dec-16 00:30N 37°48' W 024°36'816.0
2017-Dec-16 00:01N 37°46' W 024°46'815.8
2017-Dec-15 23:30N 37°44' W 024°56'816.0
2017-Dec-15 23:00N 37°43' W 025°06'816.4
2017-Dec-15 22:30N 37°42' W 025°16'816.3
2017-Dec-15 22:01N 37°41' W 025°26'816.1
2017-Dec-15 21:30N 37°43' W 025°36'3 6.7
2017-Dec-15 21:01N 37°44' W 025°40'0 0.0
2017-Dec-15 20:28N 37°44' W 025°40'0 0.0
2017-Dec-15 19:58N 37°44' W 025°40'0 0.0
2017-Dec-15 19:28N 37°44' W 025°40'0 0.0
2017-Dec-15 18:58N 37°44' W 025°40'0 0.0
2017-Dec-15 18:28N 37°44' W 025°40'0 0.0
2017-Dec-15 17:58N 37°44' W 025°40'0 0.0
2017-Dec-15 17:28N 37°44' W 025°40'0 0.0
2017-Dec-15 16:58N 37°44' W 025°40'0 0.0
2017-Dec-15 16:28N 37°44' W 025°40'0 0.0
2017-Dec-15 15:58N 37°44' W 025°40'0 0.0
2017-Dec-15 15:28N 37°44' W 025°40'0 0.0
2017-Dec-15 14:58N 37°44' W 025°40'0 0.0
2017-Dec-15 14:28N 37°44' W 025°40'0 0.0
2017-Dec-15 13:58N 37°44' W 025°40'0 0.0
2017-Dec-15 13:28N 37°44' W 025°40'0 0.0
2017-Dec-15 12:58N 37°44' W 025°40'0 0.0
2017-Dec-15 12:28N 37°44' W 025°40'0 0.0
2017-Dec-15 11:58N 37°44' W 025°40'0 0.0
2017-Dec-15 11:28N 37°44' W 025°40'0 0.0
2017-Dec-15 10:58N 37°44' W 025°40'0 0.0
2017-Dec-15 10:28N 37°44' W 025°40'0 0.0
2017-Dec-15 09:58N 37°44' W 025°40'0 0.0
2017-Dec-15 09:28N 37°44' W 025°40'0 0.0
2017-Dec-15 08:58N 37°44' W 025°40'0 0.0
2017-Dec-15 08:30N 37°44' W 025°40'2 5.0
2017-Dec-15 08:00N 37°43' W 025°37'1 1.3
2017-Dec-15 07:31N 37°42' W 025°37'714.1
2017-Dec-15 07:01N 37°43' W 025°46'714.8
2017-Dec-15 06:30N 37°46' W 025°55'815.4
2017-Dec-15 06:01N 37°49' W 026°04'815.3
2017-Dec-15 05:30N 37°52' W 026°13'815.2
2017-Dec-15 05:00N 37°55' W 026°22'815.5
2017-Dec-15 04:30N 37°58' W 026°31'815.5
2017-Dec-15 04:01N 38°01' W 026°40'2315.2
2017-Dec-15 02:30N 38°09' W 027°07'2114.3
2017-Dec-15 01:00N 38°18' W 027°32'714.5
2017-Dec-15 00:30N 38°22' W 027°40'46 7.7
2017-Dec-14 18:30N 38°32' W 028°37'0 0.0
2017-Dec-14 17:57N 38°32' W 028°37'0 0.0
2017-Dec-14 17:30N 38°32' W 028°37'0 0.0
2017-Dec-14 16:57N 38°32' W 028°37'0 0.0
2017-Dec-14 16:30N 38°32' W 028°37'0 0.0
2017-Dec-14 15:57N 38°32' W 028°37'0 0.0
2017-Dec-14 15:00N 38°32' W 028°37'0 0.0
2017-Dec-14 14:30N 38°32' W 028°37'0 0.0
2017-Dec-14 14:00N 38°32' W 028°37'0 0.0
2017-Dec-14 13:30N 38°32' W 028°37'0 0.0
2017-Dec-14 13:00N 38°32' W 028°37'0 0.0
2017-Dec-14 12:27N 38°32' W 028°37'0 0.0
2017-Dec-14 12:00N 38°32' W 028°37'0 0.0
2017-Dec-14 11:27N 38°32' W 028°37'0 0.0
2017-Dec-14 11:00N 38°32' W 028°37'0 0.0
2017-Dec-14 10:30N 38°32' W 028°37'0 0.0
2017-Dec-14 09:57N 38°32' W 028°37'0 0.0
2017-Dec-14 09:30N 38°32' W 028°37'0 0.0
2017-Dec-14 09:00N 38°32' W 028°37'0 0.9
2017-Dec-14 08:31N 38°32' W 028°37'510.0
2017-Dec-14 08:00N 38°35' W 028°32'713.7
2017-Dec-14 07:30N 38°39' W 028°25'5 9.6
2017-Dec-14 07:00N 38°43' W 028°29'713.3
2017-Dec-14 06:30N 38°40' W 028°21'713.8
2017-Dec-14 06:01N 38°37' W 028°13'714.4
2017-Dec-14 05:31N 38°35' W 028°04'714.8
2017-Dec-14 05:01N 38°32' W 027°55'714.3
2017-Dec-14 04:31N 38°29' W 027°47'713.3
2017-Dec-14 04:00N 38°29' W 027°39'713.3
2017-Dec-14 03:30N 38°31' W 027°30'713.5
2017-Dec-14 02:57N 38°32' W 027°21'613.6
2017-Dec-14 02:31N 38°34' W 027°13'813.6
2017-Dec-14 01:56N 38°35' W 027°04'613.2
2017-Dec-14 01:28N 38°40' W 026°60'4 1.6
2017-Dec-13 23:01N 38°43' W 027°03'0 0.0
2017-Dec-13 10:57N 38°43' W 027°03'3 5.8
2017-Dec-13 10:27N 38°42' W 026°60'816.1
2017-Dec-13 09:58N 38°37' W 026°52'715.6
2017-Dec-13 09:30N 38°32' W 026°46'815.6
2017-Dec-13 09:00N 38°26' W 026°39'816.1
2017-Dec-13 08:30N 38°21' W 026°31'816.1
2017-Dec-13 08:00N 38°15' W 026°24'816.0
2017-Dec-13 07:30N 38°09' W 026°17'816.1
2017-Dec-13 07:00N 38°03' W 026°11'816.1
2017-Dec-13 06:31N 37°57' W 026°03'816.3
2017-Dec-13 06:00N 37°52' W 025°56'816.6
2017-Dec-13 05:30N 37°46' W 025°48'816.1
2017-Dec-13 05:01N 37°42' W 025°39'2 4.3
2017-Dec-13 04:30N 37°44' W 025°40'0 0.0
2017-Dec-13 03:59N 37°44' W 025°40'0 0.0
2017-Dec-13 03:29N 37°44' W 025°40'0 0.0
2017-Dec-13 02:59N 37°44' W 025°40'0 0.0
2017-Dec-13 02:29N 37°44' W 025°40'0 0.0
2017-Dec-13 01:59N 37°44' W 025°40'0 0.0
2017-Dec-13 01:29N 37°44' W 025°40'0 0.0
2017-Dec-13 00:58N 37°44' W 025°40'0 0.0
2017-Dec-13 00:29N 37°44' W 025°40'0 0.0
2017-Dec-12 23:59N 37°44' W 025°40'0 0.0
2017-Dec-12 23:28N 37°44' W 025°40'0 0.0
2017-Dec-12 22:59N 37°44' W 025°40'0 0.0
2017-Dec-12 22:29N 37°44' W 025°40'0 0.0
2017-Dec-12 21:58N 37°44' W 025°40'0 0.0
2017-Dec-12 21:29N 37°44' W 025°40'0 0.0
2017-Dec-12 20:58N 37°44' W 025°40'0 0.0
2017-Dec-12 20:28N 37°44' W 025°40'0 0.0
2017-Dec-12 19:59N 37°44' W 025°40'0 0.0
2017-Dec-12 19:28N 37°44' W 025°40'0 0.0
2017-Dec-12 19:01N 37°44' W 025°40'0 0.0
2017-Dec-12 18:31N 37°44' W 025°40'0 0.0
2017-Dec-12 18:01N 37°44' W 025°40'0 0.0
2017-Dec-12 17:31N 37°44' W 025°40'0 0.0
2017-Dec-12 17:00N 37°44' W 025°40'0 0.0
2017-Dec-12 16:30N 37°44' W 025°40'0 0.0
2017-Dec-12 16:00N 37°44' W 025°40'0 0.0
2017-Dec-12 15:30N 37°44' W 025°40'0 0.1
2017-Dec-12 15:00N 37°44' W 025°40'2 4.3
2017-Dec-12 14:31N 37°43' W 025°37'714.5
2017-Dec-12 14:00N 37°40' W 025°29'815.9
2017-Dec-12 13:30N 37°41' W 025°19'816.0
2017-Dec-12 13:00N 37°42' W 025°09'815.6
2017-Dec-12 12:30N 37°43' W 024°59'815.5
2017-Dec-12 12:00N 37°44' W 024°50'815.4
2017-Dec-12 11:30N 37°44' W 024°40'815.2
2017-Dec-12 11:01N 37°45' W 024°30'815.4
2017-Dec-12 10:30N 37°46' W 024°21'815.4
2017-Dec-12 10:00N 37°47' W 024°11'815.2
2017-Dec-12 09:31N 37°48' W 024°01'815.3
2017-Dec-12 09:00N 37°48' W 023°52'  
2017-Dec-09 21:13N 41°07' W 008°50'315.2
2017-Dec-09 21:00N 41°08' W 008°46'4 8.7
2017-Dec-09 20:30N 41°11' W 008°42'0 0.0
2017-Dec-09 20:00N 41°11' W 008°42'0 0.0
2017-Dec-09 19:30N 41°11' W 008°42'0 0.0
2017-Dec-09 19:00N 41°11' W 008°42'0 0.0
2017-Dec-09 18:30N 41°11' W 008°42'0 0.0
2017-Dec-09 18:00N 41°11' W 008°42'0 0.0
2017-Dec-09 17:30N 41°11' W 008°42'0 0.0
2017-Dec-09 17:00N 41°11' W 008°42'0 0.0
2017-Dec-09 16:30N 41°11' W 008°42'0 0.0
2017-Dec-09 16:00N 41°11' W 008°42'0 0.0
2017-Dec-09 15:30N 41°11' W 008°42'0 0.0
2017-Dec-09 14:57N 41°11' W 008°42'0 0.0
2017-Dec-09 14:30N 41°11' W 008°42'0 0.0
2017-Dec-09 14:00N 41°11' W 008°42'0 0.0
2017-Dec-09 13:30N 41°11' W 008°42'0 0.0
2017-Dec-09 12:57N 41°11' W 008°42'0 0.0
2017-Dec-09 12:30N 41°11' W 008°42'0 0.0
2017-Dec-09 12:00N 41°11' W 008°42'0 0.0
2017-Dec-09 11:30N 41°11' W 008°42'0 0.0
2017-Dec-09 11:00N 41°11' W 008°42'0 0.0
2017-Dec-09 10:30N 41°11' W 008°42'0 0.0
2017-Dec-09 10:00N 41°11' W 008°42'0 0.0
2017-Dec-09 09:30N 41°11' W 008°42'0 0.0
2017-Dec-09 09:00N 41°11' W 008°42'0 0.0
2017-Dec-09 08:30N 41°11' W 008°42'0 0.0
2017-Dec-09 08:00N 41°11' W 008°42'0 0.1
2017-Dec-09 07:30N 41°11' W 008°42'0 0.7
2017-Dec-09 07:00N 41°11' W 008°42'0 0.0
2017-Dec-09 06:30N 41°11' W 008°42'0 0.0
2017-Dec-09 06:00N 41°11' W 008°42'0 0.0
2017-Dec-09 05:30N 41°11' W 008°42'0 0.0
2017-Dec-09 05:00N 41°11' W 008°42'0 0.0
2017-Dec-09 04:30N 41°11' W 008°42'0 0.0
2017-Dec-09 04:00N 41°11' W 008°42'0 0.0
2017-Dec-09 03:18N 41°11' W 008°42'0 0.0
2017-Dec-09 03:00N 41°11' W 008°42'0 0.0
2017-Dec-09 02:21N 41°11' W 008°42'0 0.0
2017-Dec-09 01:57N 41°11' W 008°42'0 0.0
2017-Dec-09 01:27N 41°11' W 008°42'0 0.0
2017-Dec-09 01:00N 41°11' W 008°42'0 0.0
2017-Dec-09 00:30N 41°11' W 008°42'0 0.0
2017-Dec-09 00:00N 41°11' W 008°42'0 0.0
2017-Dec-08 23:30N 41°11' W 008°42'0 0.0
2017-Dec-08 22:51N 41°11' W 008°42'0 0.0
2017-Dec-08 22:30N 41°11' W 008°42'0 0.0
2017-Dec-08 22:00N 41°11' W 008°42'0 0.0
2017-Dec-08 21:30N 41°11' W 008°42'0 0.0
2017-Dec-08 21:00N 41°11' W 008°42'0 0.0
2017-Dec-08 20:30N 41°11' W 008°42'0 0.0
2017-Dec-08 19:57N 41°11' W 008°42'0 0.0
2017-Dec-08 19:27N 41°11' W 008°42'0 0.0
2017-Dec-08 19:00N 41°11' W 008°42'0 0.0
2017-Dec-08 18:30N 41°11' W 008°42'0 0.0
2017-Dec-08 17:57N 41°11' W 008°42'0 0.0
2017-Dec-08 17:30N 41°11' W 008°42'0 0.0
2017-Dec-08 16:51N 41°11' W 008°42'0 0.0
2017-Dec-08 16:30N 41°11' W 008°42'0 0.0
2017-Dec-08 16:00N 41°11' W 008°42'0 0.0
2017-Dec-08 15:30N 41°11' W 008°42'0 0.0
2017-Dec-08 15:00N 41°11' W 008°42'0 0.0
2017-Dec-08 14:30N 41°11' W 008°42'0 0.0
2017-Dec-08 13:57N 41°11' W 008°42'0 0.0
2017-Dec-08 13:24N 41°11' W 008°42'0 0.0
2017-Dec-08 13:00N 41°11' W 008°42'0 0.0
2017-Dec-08 12:30N 41°11' W 008°42'0 0.0
2017-Dec-08 12:00N 41°11' W 008°42'0 0.0
2017-Dec-08 11:30N 41°11' W 008°42'0 0.0
2017-Dec-08 11:00N 41°11' W 008°42'0 0.0
2017-Dec-08 10:30N 41°11' W 008°42'0 0.0
2017-Dec-08 10:00N 41°11' W 008°42'0 0.0
2017-Dec-08 09:30N 41°11' W 008°42'0 0.0
2017-Dec-08 09:00N 41°11' W 008°42'0 0.0
2017-Dec-08 08:30N 41°11' W 008°42'0 0.0
2017-Dec-08 08:00N 41°11' W 008°42'0 0.0
2017-Dec-08 07:30N 41°11' W 008°42'0 0.0
2017-Dec-08 07:00N 41°11' W 008°42'0 0.0
2017-Dec-08 06:30N 41°11' W 008°42'0 0.0
2017-Dec-08 05:57N 41°11' W 008°42'0 0.0
2017-Dec-08 05:27N 41°11' W 008°42'0 0.0
2017-Dec-08 05:00N 41°11' W 008°42'0 0.0
2017-Dec-08 04:30N 41°11' W 008°42'0 0.0
2017-Dec-08 04:00N 41°11' W 008°42'0 0.0
2017-Dec-08 03:30N 41°11' W 008°42'0 0.0
2017-Dec-08 03:00N 41°11' W 008°42'0 0.0
2017-Dec-08 02:30N 41°11' W 008°42'0 0.0
2017-Dec-08 01:59N 41°11' W 008°42'0 0.0
2017-Dec-08 01:29N 41°11' W 008°42'0 0.0
2017-Dec-08 00:53N 41°11' W 008°42'0 0.0
2017-Dec-08 00:29N 41°11' W 008°42'0 0.0
2017-Dec-07 23:59N 41°11' W 008°42'0 0.0
2017-Dec-07 23:14N 41°11' W 008°42'0 0.0
2017-Dec-07 22:59N 41°11' W 008°42'0 0.0
2017-Dec-07 22:29N 41°11' W 008°42'0 0.0
2017-Dec-07 21:59N 41°11' W 008°42'0 0.0
2017-Dec-07 21:20N 41°11' W 008°42'0 0.0
2017-Dec-07 20:56N 41°11' W 008°42'0 0.0
2017-Dec-07 20:26N 41°11' W 008°42'0 0.0
2017-Dec-07 19:56N 41°11' W 008°42'0 0.0
2017-Dec-07 19:29N 41°11' W 008°42'0 0.0
2017-Dec-07 18:59N 41°11' W 008°42'0 0.0
2017-Dec-07 18:29N 41°11' W 008°42'0 0.0
2017-Dec-07 17:59N 41°11' W 008°42'0 0.0
2017-Dec-07 17:26N 41°11' W 008°42'0 0.0
2017-Dec-07 16:59N 41°11' W 008°42'0 0.0
2017-Dec-07 16:29N 41°11' W 008°42'0 0.0
2017-Dec-07 15:59N 41°11' W 008°42'0 0.0
2017-Dec-07 15:23N 41°11' W 008°42'0 0.0
2017-Dec-07 14:59N 41°11' W 008°42'0 0.0
2017-Dec-07 14:29N 41°11' W 008°42'0 0.0
2017-Dec-07 13:59N 41°11' W 008°42'0 0.0
2017-Dec-07 13:29N 41°11' W 008°42'0 0.0
2017-Dec-07 12:59N 41°11' W 008°42'0 0.0
2017-Dec-07 12:29N 41°11' W 008°42'0 0.0
2017-Dec-07 11:50N 41°11' W 008°42'0 0.0
2017-Dec-07 11:29N 41°11' W 008°42'0 0.0
2017-Dec-07 10:59N 41°11' W 008°42'0 0.0
2017-Dec-07 10:29N 41°11' W 008°42'0 0.0
2017-Dec-07 09:59N 41°11' W 008°42'0 0.0
2017-Dec-07 09:29N 41°11' W 008°42'0 0.0
2017-Dec-07 08:53N 41°11' W 008°42'0 0.0
2017-Dec-07 08:29N 41°11' W 008°42'0 0.0
2017-Dec-07 07:59N 41°11' W 008°42'0 0.0
2017-Dec-07 07:29N 41°11' W 008°42'0 0.0
2017-Dec-07 06:59N 41°11' W 008°42'0 0.0
2017-Dec-07 06:29N 41°11' W 008°42'0 0.0
2017-Dec-07 05:59N 41°11' W 008°42'0 0.0
2017-Dec-07 05:26N 41°11' W 008°42'0 0.0
2017-Dec-07 04:59N 41°11' W 008°42'0 0.0
2017-Dec-07 04:29N 41°11' W 008°42'0 0.0
2017-Dec-07 03:59N 41°11' W 008°42'0 0.0
2017-Dec-07 03:29N 41°11' W 008°42'0 0.0
2017-Dec-07 02:59N 41°11' W 008°42'0 0.0
2017-Dec-07 02:29N 41°11' W 008°42'0 0.0
2017-Dec-07 01:59N 41°11' W 008°42'0 0.0
2017-Dec-07 01:23N 41°11' W 008°42'0 0.0
2017-Dec-07 00:53N 41°11' W 008°42'0 0.0
2017-Dec-07 00:29N 41°11' W 008°42'0 0.0
2017-Dec-06 23:56N 41°11' W 008°42'0 0.0
2017-Dec-06 23:23N 41°11' W 008°42'0 0.0
2017-Dec-06 22:59N 41°11' W 008°42'0 0.0
2017-Dec-06 22:29N 41°11' W 008°42'0 0.4
2017-Dec-06 21:56N 41°11' W 008°42'0 0.0
2017-Dec-06 21:29N 41°11' W 008°42'0 0.0
2017-Dec-06 20:59N 41°11' W 008°42'  
Track history (hours):
 
Tides and Currents Weather Stations Pressure Air Temp Water Temp Dewpoint Dewpoint Depression Visibility Wind Speed Wind Dir Waves Ship Positions

Monte Brasil

Last reported at 2017-Dec-16 02:44 UTC. Time now 2017-Dec-17 02:33 UTC.
Position N 37°57' W 023°53'.

Length 127 m; draft 6.6 m.

Type: Cargo ship. MMSI: 255806010.

Date/timePositionNaut miles runAvg speedWind from/ knotsBaromVisibWave heightAir tempDewpointWater temp
2017-Dec-16 02:44N 37°57' W 023°53'416.0
2017-Dec-16 02:30N 37°56' W 023°58'815.9
2017-Dec-16 02:00N 37°54' W 024°07'815.9
2017-Dec-16 01:30N 37°52' W 024°17'815.6
2017-Dec-16 01:00N 37°50' W 024°26'815.8
2017-Dec-16 00:30N 37°48' W 024°36'816.0
2017-Dec-16 00:01N 37°46' W 024°46'815.8
2017-Dec-15 23:30N 37°44' W 024°56'816.0
2017-Dec-15 23:00N 37°43' W 025°06'816.4
2017-Dec-15 22:30N 37°42' W 025°16'816.3
2017-Dec-15 22:01N 37°41' W 025°26'816.1
2017-Dec-15 21:30N 37°43' W 025°36'3 6.7
2017-Dec-15 21:01N 37°44' W 025°40'0 0.0
2017-Dec-15 20:28N 37°44' W 025°40'0 0.0
2017-Dec-15 19:58N 37°44' W 025°40'0 0.0
2017-Dec-15 19:28N 37°44' W 025°40'0 0.0
2017-Dec-15 18:58N 37°44' W 025°40'0 0.0
2017-Dec-15 18:28N 37°44' W 025°40'0 0.0
2017-Dec-15 17:58N 37°44' W 025°40'0 0.0
2017-Dec-15 17:28N 37°44' W 025°40'0 0.0
2017-Dec-15 16:58N 37°44' W 025°40'0 0.0
2017-Dec-15 16:28N 37°44' W 025°40'0 0.0
2017-Dec-15 15:58N 37°44' W 025°40'0 0.0
2017-Dec-15 15:28N 37°44' W 025°40'0 0.0
2017-Dec-15 14:58N 37°44' W 025°40'0 0.0
2017-Dec-15 14:28N 37°44' W 025°40'0 0.0
2017-Dec-15 13:58N 37°44' W 025°40'0 0.0
2017-Dec-15 13:28N 37°44' W 025°40'0 0.0
2017-Dec-15 12:58N 37°44' W 025°40'0 0.0
2017-Dec-15 12:28N 37°44' W 025°40'0 0.0
2017-Dec-15 11:58N 37°44' W 025°40'0 0.0
2017-Dec-15 11:28N 37°44' W 025°40'0 0.0
2017-Dec-15 10:58N 37°44' W 025°40'0 0.0
2017-Dec-15 10:28N 37°44' W 025°40'0 0.0
2017-Dec-15 09:58N 37°44' W 025°40'0 0.0
2017-Dec-15 09:28N 37°44' W 025°40'0 0.0
2017-Dec-15 08:58N 37°44' W 025°40'0 0.0
2017-Dec-15 08:30N 37°44' W 025°40'2 5.0
2017-Dec-15 08:00N 37°43' W 025°37'1 1.3
2017-Dec-15 07:31N 37°42' W 025°37'714.1
2017-Dec-15 07:01N 37°43' W 025°46'714.8
2017-Dec-15 06:30N 37°46' W 025°55'815.4
2017-Dec-15 06:01N 37°49' W 026°04'815.3
2017-Dec-15 05:30N 37°52' W 026°13'815.2
2017-Dec-15 05:00N 37°55' W 026°22'815.5
2017-Dec-15 04:30N 37°58' W 026°31'815.5
2017-Dec-15 04:01N 38°01' W 026°40'2315.2
2017-Dec-15 02:30N 38°09' W 027°07'2114.3
2017-Dec-15 01:00N 38°18' W 027°32'714.5
2017-Dec-15 00:30N 38°22' W 027°40'46 7.7
2017-Dec-14 18:30N 38°32' W 028°37'0 0.0
2017-Dec-14 17:57N 38°32' W 028°37'0 0.0
2017-Dec-14 17:30N 38°32' W 028°37'0 0.0
2017-Dec-14 16:57N 38°32' W 028°37'0 0.0
2017-Dec-14 16:30N 38°32' W 028°37'0 0.0
2017-Dec-14 15:57N 38°32' W 028°37'0 0.0
2017-Dec-14 15:00N 38°32' W 028°37'0 0.0
2017-Dec-14 14:30N 38°32' W 028°37'0 0.0
2017-Dec-14 14:00N 38°32' W 028°37'0 0.0
2017-Dec-14 13:30N 38°32' W 028°37'0 0.0
2017-Dec-14 13:00N 38°32' W 028°37'0 0.0
2017-Dec-14 12:27N 38°32' W 028°37'0 0.0
2017-Dec-14 12:00N 38°32' W 028°37'0 0.0
2017-Dec-14 11:27N 38°32' W 028°37'0 0.0
2017-Dec-14 11:00N 38°32' W 028°37'0 0.0
2017-Dec-14 10:30N 38°32' W 028°37'0 0.0
2017-Dec-14 09:57N 38°32' W 028°37'0 0.0
2017-Dec-14 09:30N 38°32' W 028°37'0 0.0
2017-Dec-14 09:00N 38°32' W 028°37'0 0.9
2017-Dec-14 08:31N 38°32' W 028°37'510.0
2017-Dec-14 08:00N 38°35' W 028°32'713.7
2017-Dec-14 07:30N 38°39' W 028°25'5 9.6
2017-Dec-14 07:00N 38°43' W 028°29'713.3
2017-Dec-14 06:30N 38°40' W 028°21'713.8
2017-Dec-14 06:01N 38°37' W 028°13'714.4
2017-Dec-14 05:31N 38°35' W 028°04'714.8
2017-Dec-14 05:01N 38°32' W 027°55'714.3
2017-Dec-14 04:31N 38°29' W 027°47'713.3
2017-Dec-14 04:00N 38°29' W 027°39'713.3
2017-Dec-14 03:30N 38°31' W 027°30'713.5
2017-Dec-14 02:57N 38°32' W 027°21'613.6
2017-Dec-14 02:31N 38°34' W 027°13'813.6
2017-Dec-14 01:56N 38°35' W 027°04'613.2
2017-Dec-14 01:28N 38°40' W 026°60'4 1.6
2017-Dec-13 23:01N 38°43' W 027°03'0 0.0
2017-Dec-13 10:57N 38°43' W 027°03'3 5.8
2017-Dec-13 10:27N 38°42' W 026°60'816.1
2017-Dec-13 09:58N 38°37' W 026°52'715.6
2017-Dec-13 09:30N 38°32' W 026°46'815.6
2017-Dec-13 09:00N 38°26' W 026°39'816.1
2017-Dec-13 08:30N 38°21' W 026°31'816.1
2017-Dec-13 08:00N 38°15' W 026°24'816.0
2017-Dec-13 07:30N 38°09' W 026°17'816.1
2017-Dec-13 07:00N 38°03' W 026°11'816.1
2017-Dec-13 06:31N 37°57' W 026°03'816.3
2017-Dec-13 06:00N 37°52' W 025°56'816.6
2017-Dec-13 05:30N 37°46' W 025°48'816.1
2017-Dec-13 05:01N 37°42' W 025°39'2 4.3
2017-Dec-13 04:30N 37°44' W 025°40'0 0.0
2017-Dec-13 03:59N 37°44' W 025°40'0 0.0
2017-Dec-13 03:29N 37°44' W 025°40'0 0.0
2017-Dec-13 02:59N 37°44' W 025°40'0 0.0
2017-Dec-13 02:29N 37°44' W 025°40'0 0.0
2017-Dec-13 01:59N 37°44' W 025°40'0 0.0
2017-Dec-13 01:29N 37°44' W 025°40'0 0.0
2017-Dec-13 00:58N 37°44' W 025°40'0 0.0
2017-Dec-13 00:29N 37°44' W 025°40'0 0.0
2017-Dec-12 23:59N 37°44' W 025°40'0 0.0
2017-Dec-12 23:28N 37°44' W 025°40'0 0.0
2017-Dec-12 22:59N 37°44' W 025°40'0 0.0
2017-Dec-12 22:29N 37°44' W 025°40'0 0.0
2017-Dec-12 21:58N 37°44' W 025°40'0 0.0
2017-Dec-12 21:29N 37°44' W 025°40'0 0.0
2017-Dec-12 20:58N 37°44' W 025°40'0 0.0
2017-Dec-12 20:28N 37°44' W 025°40'0 0.0
2017-Dec-12 19:59N 37°44' W 025°40'0 0.0
2017-Dec-12 19:28N 37°44' W 025°40'0 0.0
2017-Dec-12 19:01N 37°44' W 025°40'0 0.0
2017-Dec-12 18:31N 37°44' W 025°40'0 0.0
2017-Dec-12 18:01N 37°44' W 025°40'0 0.0
2017-Dec-12 17:31N 37°44' W 025°40'0 0.0
2017-Dec-12 17:00N 37°44' W 025°40'0 0.0
2017-Dec-12 16:30N 37°44' W 025°40'0 0.0
2017-Dec-12 16:00N 37°44' W 025°40'0 0.0
2017-Dec-12 15:30N 37°44' W 025°40'0 0.1
2017-Dec-12 15:00N 37°44' W 025°40'2 4.3
2017-Dec-12 14:31N 37°43' W 025°37'714.5
2017-Dec-12 14:00N 37°40' W 025°29'815.9
2017-Dec-12 13:30N 37°41' W 025°19'816.0
2017-Dec-12 13:00N 37°42' W 025°09'815.6
2017-Dec-12 12:30N 37°43' W 024°59'815.5
2017-Dec-12 12:00N 37°44' W 024°50'815.4
2017-Dec-12 11:30N 37°44' W 024°40'815.2
2017-Dec-12 11:01N 37°45' W 024°30'815.4
2017-Dec-12 10:30N 37°46' W 024°21'815.4
2017-Dec-12 10:00N 37°47' W 024°11'815.2
2017-Dec-12 09:31N 37°48' W 024°01'815.3
2017-Dec-12 09:00N 37°48' W 023°52'  
2017-Dec-09 21:13N 41°07' W 008°50'315.2
2017-Dec-09 21:00N 41°08' W 008°46'4 8.7
2017-Dec-09 20:30N 41°11' W 008°42'0 0.0
2017-Dec-09 20:00N 41°11' W 008°42'0 0.0
2017-Dec-09 19:30N 41°11' W 008°42'0 0.0
2017-Dec-09 19:00N 41°11' W 008°42'0 0.0
2017-Dec-09 18:30N 41°11' W 008°42'0 0.0
2017-Dec-09 18:00N 41°11' W 008°42'0 0.0
2017-Dec-09 17:30N 41°11' W 008°42'0 0.0
2017-Dec-09 17:00N 41°11' W 008°42'0 0.0
2017-Dec-09 16:30N 41°11' W 008°42'0 0.0
2017-Dec-09 16:00N 41°11' W 008°42'0 0.0
2017-Dec-09 15:30N 41°11' W 008°42'0 0.0
2017-Dec-09 14:57N 41°11' W 008°42'0 0.0
2017-Dec-09 14:30N 41°11' W 008°42'0 0.0
2017-Dec-09 14:00N 41°11' W 008°42'0 0.0
2017-Dec-09 13:30N 41°11' W 008°42'0 0.0
2017-Dec-09 12:57N 41°11' W 008°42'0 0.0
2017-Dec-09 12:30N 41°11' W 008°42'0 0.0
2017-Dec-09 12:00N 41°11' W 008°42'0 0.0
2017-Dec-09 11:30N 41°11' W 008°42'0 0.0
2017-Dec-09 11:00N 41°11' W 008°42'0 0.0
2017-Dec-09 10:30N 41°11' W 008°42'0 0.0
2017-Dec-09 10:00N 41°11' W 008°42'0 0.0
2017-Dec-09 09:30N 41°11' W 008°42'0 0.0
2017-Dec-09 09:00N 41°11' W 008°42'0 0.0
2017-Dec-09 08:30N 41°11' W 008°42'0 0.0
2017-Dec-09 08:00N 41°11' W 008°42'0 0.1
2017-Dec-09 07:30N 41°11' W 008°42'0 0.7
2017-Dec-09 07:00N 41°11' W 008°42'0 0.0
2017-Dec-09 06:30N 41°11' W 008°42'0 0.0
2017-Dec-09 06:00N 41°11' W 008°42'0 0.0
2017-Dec-09 05:30N 41°11' W 008°42'0 0.0
2017-Dec-09 05:00N 41°11' W 008°42'0 0.0
2017-Dec-09 04:30N 41°11' W 008°42'0 0.0
2017-Dec-09 04:00N 41°11' W 008°42'0 0.0
2017-Dec-09 03:18N 41°11' W 008°42'0 0.0
2017-Dec-09 03:00N 41°11' W 008°42'0 0.0
2017-Dec-09 02:21N 41°11' W 008°42'0 0.0
2017-Dec-09 01:57N 41°11' W 008°42'0 0.0
2017-Dec-09 01:27N 41°11' W 008°42'0 0.0
2017-Dec-09 01:00N 41°11' W 008°42'0 0.0
2017-Dec-09 00:30N 41°11' W 008°42'0 0.0
2017-Dec-09 00:00N 41°11' W 008°42'0 0.0
2017-Dec-08 23:30N 41°11' W 008°42'0 0.0
2017-Dec-08 22:51N 41°11' W 008°42'0 0.0
2017-Dec-08 22:30N 41°11' W 008°42'0 0.0
2017-Dec-08 22:00N 41°11' W 008°42'0 0.0
2017-Dec-08 21:30N 41°11' W 008°42'0 0.0
2017-Dec-08 21:00N 41°11' W 008°42'0 0.0
2017-Dec-08 20:30N 41°11' W 008°42'0 0.0
2017-Dec-08 19:57N 41°11' W 008°42'0 0.0
2017-Dec-08 19:27N 41°11' W 008°42'0 0.0
2017-Dec-08 19:00N 41°11' W 008°42'0 0.0
2017-Dec-08 18:30N 41°11' W 008°42'0 0.0
2017-Dec-08 17:57N 41°11' W 008°42'0 0.0
2017-Dec-08 17:30N 41°11' W 008°42'0 0.0
2017-Dec-08 16:51N 41°11' W 008°42'0 0.0
2017-Dec-08 16:30N 41°11' W 008°42'0 0.0
2017-Dec-08 16:00N 41°11' W 008°42'0 0.0
2017-Dec-08 15:30N 41°11' W 008°42'0 0.0
2017-Dec-08 15:00N 41°11' W 008°42'0 0.0
2017-Dec-08 14:30N 41°11' W 008°42'0 0.0
2017-Dec-08 13:57N 41°11' W 008°42'0 0.0
2017-Dec-08 13:24N 41°11' W 008°42'0 0.0
2017-Dec-08 13:00N 41°11' W 008°42'0 0.0
2017-Dec-08 12:30N 41°11' W 008°42'0 0.0
2017-Dec-08 12:00N 41°11' W 008°42'0 0.0
2017-Dec-08 11:30N 41°11' W 008°42'0 0.0
2017-Dec-08 11:00N 41°11' W 008°42'0 0.0
2017-Dec-08 10:30N 41°11' W 008°42'0 0.0
2017-Dec-08 10:00N 41°11' W 008°42'0 0.0
2017-Dec-08 09:30N 41°11' W 008°42'0 0.0
2017-Dec-08 09:00N 41°11' W 008°42'0 0.0
2017-Dec-08 08:30N 41°11' W 008°42'0 0.0
2017-Dec-08 08:00N 41°11' W 008°42'0 0.0
2017-Dec-08 07:30N 41°11' W 008°42'0 0.0
2017-Dec-08 07:00N 41°11' W 008°42'0 0.0
2017-Dec-08 06:30N 41°11' W 008°42'0 0.0
2017-Dec-08 05:57N 41°11' W 008°42'0 0.0
2017-Dec-08 05:27N 41°11' W 008°42'0 0.0
2017-Dec-08 05:00N 41°11' W 008°42'0 0.0
2017-Dec-08 04:30N 41°11' W 008°42'0 0.0
2017-Dec-08 04:00N 41°11' W 008°42'0 0.0
2017-Dec-08 03:30N 41°11' W 008°42'0 0.0
2017-Dec-08 03:00N 41°11' W 008°42'0 0.0
2017-Dec-08 02:30N 41°11' W 008°42'0 0.0
2017-Dec-08 01:59N 41°11' W 008°42'0 0.0
2017-Dec-08 01:29N 41°11' W 008°42'0 0.0
2017-Dec-08 00:53N 41°11' W 008°42'0 0.0
2017-Dec-08 00:29N 41°11' W 008°42'0 0.0
2017-Dec-07 23:59N 41°11' W 008°42'0 0.0
2017-Dec-07 23:14N 41°11' W 008°42'0 0.0
2017-Dec-07 22:59N 41°11' W 008°42'0 0.0
2017-Dec-07 22:29N 41°11' W 008°42'0 0.0
2017-Dec-07 21:59N 41°11' W 008°42'0 0.0
2017-Dec-07 21:20N 41°11' W 008°42'0 0.0
2017-Dec-07 20:56N 41°11' W 008°42'0 0.0
2017-Dec-07 20:26N 41°11' W 008°42'0 0.0
2017-Dec-07 19:56N 41°11' W 008°42'0 0.0
2017-Dec-07 19:29N 41°11' W 008°42'0 0.0
2017-Dec-07 18:59N 41°11' W 008°42'0 0.0
2017-Dec-07 18:29N 41°11' W 008°42'0 0.0
2017-Dec-07 17:59N 41°11' W 008°42'0 0.0
2017-Dec-07 17:26N 41°11' W 008°42'0 0.0
2017-Dec-07 16:59N 41°11' W 008°42'0 0.0
2017-Dec-07 16:29N 41°11' W 008°42'0 0.0
2017-Dec-07 15:59N 41°11' W 008°42'0 0.0
2017-Dec-07 15:23N 41°11' W 008°42'0 0.0
2017-Dec-07 14:59N 41°11' W 008°42'0 0.0
2017-Dec-07 14:29N 41°11' W 008°42'0 0.0
2017-Dec-07 13:59N 41°11' W 008°42'0 0.0
2017-Dec-07 13:29N 41°11' W 008°42'0 0.0
2017-Dec-07 12:59N 41°11' W 008°42'0 0.0
2017-Dec-07 12:29N 41°11' W 008°42'0 0.0
2017-Dec-07 11:50N 41°11' W 008°42'0 0.0
2017-Dec-07 11:29N 41°11' W 008°42'0 0.0
2017-Dec-07 10:59N 41°11' W 008°42'0 0.0
2017-Dec-07 10:29N 41°11' W 008°42'0 0.0
2017-Dec-07 09:59N 41°11' W 008°42'0 0.0
2017-Dec-07 09:29N 41°11' W 008°42'0 0.0
2017-Dec-07 08:53N 41°11' W 008°42'0 0.0
2017-Dec-07 08:29N 41°11' W 008°42'0 0.0
2017-Dec-07 07:59N 41°11' W 008°42'0 0.0
2017-Dec-07 07:29N 41°11' W 008°42'0 0.0
2017-Dec-07 06:59N 41°11' W 008°42'0 0.0
2017-Dec-07 06:29N 41°11' W 008°42'0 0.0
2017-Dec-07 05:59N 41°11' W 008°42'0 0.0
2017-Dec-07 05:26N 41°11' W 008°42'0 0.0
2017-Dec-07 04:59N 41°11' W 008°42'0 0.0
2017-Dec-07 04:29N 41°11' W 008°42'0 0.0
2017-Dec-07 03:59N 41°11' W 008°42'0 0.0
2017-Dec-07 03:29N 41°11' W 008°42'0 0.0
2017-Dec-07 02:59N 41°11' W 008°42'0 0.0
2017-Dec-07 02:29N 41°11' W 008°42'0 0.0
2017-Dec-07 01:59N 41°11' W 008°42'0 0.0
2017-Dec-07 01:23N 41°11' W 008°42'0 0.0
2017-Dec-07 00:53N 41°11' W 008°42'0 0.0
2017-Dec-07 00:29N 41°11' W 008°42'0 0.0
2017-Dec-06 23:56N 41°11' W 008°42'0 0.0
2017-Dec-06 23:23N 41°11' W 008°42'0 0.0
2017-Dec-06 22:59N 41°11' W 008°42'0 0.0
2017-Dec-06 22:29N 41°11' W 008°42'0 0.4
2017-Dec-06 21:56N 41°11' W 008°42'0 0.0
2017-Dec-06 21:29N 41°11' W 008°42'0 0.0
2017-Dec-06 20:59N 41°11' W 008°42'  

Dump ship's entire track history